createdAt,value
2023-03-10T00:00:39.223Z,6.90
2023-03-10T00:03:06.624Z,5.30
2023-03-10T00:05:33.648Z,4.07
2023-03-10T00:08:00.695Z,5.03
2023-03-10T00:10:27.426Z,4.07
2023-03-10T00:12:54.089Z,2.97
2023-03-10T00:15:20.832Z,3.50
2023-03-10T00:17:50.098Z,4.70
2023-03-10T00:20:17.470Z,4.40
2023-03-10T00:22:44.582Z,3.33
2023-03-10T00:25:11.554Z,3.93
2023-03-10T00:27:38.377Z,2.70
2023-03-10T00:30:05.778Z,4.03
2023-03-10T00:32:34.634Z,4.13
2023-03-10T00:35:01.781Z,2.20
2023-03-10T00:37:28.464Z,4.10
2023-03-10T00:39:55.745Z,3.73
2023-03-10T00:42:22.944Z,1.80
2023-03-10T00:44:50.041Z,5.07
2023-03-10T00:47:16.744Z,2.10
2023-03-10T00:49:43.403Z,3.87
2023-03-10T00:52:10.564Z,2.80
2023-03-10T00:54:41.144Z,3.17
2023-03-10T00:57:09.080Z,2.00
2023-03-10T00:59:49.462Z,1.93
2023-03-10T01:02:17.618Z,1.87
2023-03-10T01:04:44.442Z,2.17
2023-03-10T01:07:11.316Z,2.10
2023-03-10T01:09:38.504Z,1.50
2023-03-10T01:12:05.558Z,1.90
2023-03-10T01:14:32.488Z,1.97
2023-03-10T01:16:59.693Z,1.87
2023-03-10T01:19:26.522Z,1.63
2023-03-10T01:21:53.840Z,1.13
2023-03-10T01:24:20.594Z,1.00
2023-03-10T01:26:47.734Z,1.00
2023-03-10T01:29:14.484Z,1.90
2023-03-10T01:31:42.056Z,1.47
2023-03-10T01:34:09.037Z,1.23
2023-03-10T01:36:36.249Z,1.07
2023-03-10T01:39:03.383Z,1.43
2023-03-10T01:41:30.551Z,0.90
2023-03-10T01:43:57.901Z,1.43
2023-03-10T01:46:37.091Z,1.00
2023-03-10T01:49:12.770Z,1.80
2023-03-10T01:51:43.837Z,2.77
2023-03-10T01:54:19.859Z,1.00
2023-03-10T01:56:48.104Z,1.20
2023-03-10T01:59:15.501Z,1.67
2023-03-10T02:01:42.804Z,1.40
2023-03-10T02:04:19.114Z,1.50
2023-03-10T02:06:48.205Z,1.80
2023-03-10T02:09:16.589Z,1.67
2023-03-10T02:11:43.972Z,2.10
2023-03-10T02:14:11.052Z,1.37
2023-03-10T02:16:38.259Z,1.33
2023-03-10T02:19:09.865Z,1.00
2023-03-10T02:21:49.194Z,1.00
2023-03-10T02:24:16.279Z,1.93
2023-03-10T02:26:56.100Z,1.10
2023-03-10T02:29:52.420Z,1.57
2023-03-10T02:32:24.420Z,1.20
2023-03-10T02:34:51.272Z,1.23
2023-03-10T02:37:30.457Z,1.03
2023-03-10T02:39:58.067Z,1.10
2023-03-10T02:42:29.511Z,1.17
2023-03-10T02:44:56.592Z,1.43
2023-03-10T02:47:23.711Z,1.13
2023-03-10T02:49:50.360Z,1.87
2023-03-10T02:52:43.393Z,2.20
2023-03-10T02:55:15.845Z,4.23
2023-03-10T02:57:42.644Z,3.20
2023-03-10T03:00:11.340Z,4.73
2023-03-10T03:02:39.793Z,5.57
2023-03-10T03:05:07.113Z,2.70
2023-03-10T03:07:34.335Z,5.30
2023-03-10T03:10:01.137Z,6.93
2023-03-10T03:12:28.270Z,12.03
2023-03-10T03:14:55.000Z,10.37
2023-03-10T03:17:21.677Z,8.53
2023-03-10T03:19:48.805Z,9.17
2023-03-10T03:22:15.976Z,10.87
2023-03-10T03:24:43.074Z,7.60
2023-03-10T03:27:09.750Z,4.83
2023-03-10T03:29:36.830Z,8.60
2023-03-10T03:32:04.036Z,5.77
2023-03-10T03:34:31.170Z,6.67
2023-03-10T03:36:57.836Z,8.07
2023-03-10T03:39:25.174Z,6.47
2023-03-10T03:41:53.421Z,8.00
2023-03-10T03:44:20.602Z,6.07
2023-03-10T03:46:47.666Z,6.37
2023-03-10T03:49:14.337Z,5.23
2023-03-10T03:51:41.553Z,3.93
2023-03-10T03:54:08.249Z,5.23
2023-03-10T03:56:34.922Z,4.40
2023-03-10T03:59:01.592Z,4.40
2023-03-10T04:01:28.687Z,6.07
2023-03-10T04:03:55.486Z,4.47
2023-03-10T04:06:23.205Z,4.70
2023-03-10T04:08:51.161Z,4.77
2023-03-10T04:11:18.321Z,5.23
2023-03-10T04:13:45.390Z,3.73
2023-03-10T04:16:12.549Z,5.23
2023-03-10T04:18:39.652Z,6.03
2023-03-10T04:21:06.339Z,4.10
2023-03-10T04:23:33.503Z,5.47
2023-03-10T04:26:00.172Z,5.03
2023-03-10T04:28:27.244Z,6.70
2023-03-10T04:30:53.909Z,4.80
2023-03-10T04:33:21.031Z,2.73
2023-03-10T04:35:48.905Z,4.30
2023-03-10T04:38:16.029Z,3.37
2023-03-10T04:40:43.059Z,6.07
2023-03-10T04:43:10.220Z,3.03
2023-03-10T04:45:37.236Z,3.17
2023-03-10T04:48:04.331Z,3.93
2023-03-10T04:50:31.414Z,5.90
2023-03-10T04:52:58.515Z,3.87
2023-03-10T04:55:25.204Z,4.87
2023-03-10T04:57:52.298Z,4.53
2023-03-10T05:00:20.085Z,8.80
2023-03-10T05:02:47.186Z,7.83
2023-03-10T05:05:14.263Z,4.60
2023-03-10T05:07:41.281Z,4.33
2023-03-10T05:10:09.177Z,8.57
2023-03-10T05:12:37.398Z,8.13
2023-03-10T05:15:05.012Z,8.00
2023-03-10T05:17:32.082Z,5.70
2023-03-10T05:19:58.820Z,6.53
2023-03-10T05:22:25.966Z,4.53
2023-03-10T05:24:52.689Z,7.93
2023-03-10T05:27:21.814Z,7.43
2023-03-10T05:29:49.001Z,6.47
2023-03-10T05:32:16.166Z,4.97
2023-03-10T05:34:42.975Z,6.50
2023-03-10T05:37:09.675Z,7.73
2023-03-10T05:39:36.367Z,4.83
2023-03-10T05:42:03.191Z,8.80
2023-03-10T05:44:30.254Z,9.67
2023-03-10T05:46:57.478Z,11.07
2023-03-10T05:49:24.198Z,11.23
2023-03-10T05:51:50.930Z,7.87
2023-03-10T05:54:18.874Z,8.50
2023-03-10T05:56:45.995Z,10.27
2023-03-10T05:59:13.105Z,8.40
2023-03-10T06:01:39.834Z,9.50
2023-03-10T06:04:07.008Z,12.27
2023-03-10T06:06:34.158Z,14.07
2023-03-10T06:09:00.910Z,13.73
2023-03-10T06:11:28.071Z,9.07
2023-03-10T06:13:55.243Z,8.37
2023-03-10T06:16:22.011Z,14.73
2023-03-10T06:18:54.278Z,12.27
2023-03-10T06:21:21.268Z,18.60
2023-03-10T06:23:48.341Z,13.33
2023-03-10T06:26:16.564Z,8.33
2023-03-10T06:28:46.009Z,6.73
2023-03-10T06:31:22.240Z,9.13
2023-03-10T06:33:48.960Z,7.20
2023-03-10T06:36:16.437Z,6.13
2023-03-10T06:38:43.626Z,5.67
2023-03-10T06:41:10.773Z,6.63
2023-03-10T06:43:38.122Z,5.80
2023-03-10T06:46:07.541Z,5.87
2023-03-10T06:48:35.289Z,3.57
2023-03-10T06:51:02.117Z,5.63
2023-03-10T06:53:29.208Z,3.27
2023-03-10T06:56:03.509Z,6.37
2023-03-10T06:58:32.456Z,7.40
2023-03-10T07:00:59.903Z,4.37
2023-03-10T07:03:28.857Z,4.93
2023-03-10T07:05:58.332Z,3.90
2023-03-10T07:08:25.655Z,6.10
2023-03-10T07:10:52.305Z,4.83
2023-03-10T07:13:19.542Z,4.73
2023-03-10T07:15:46.564Z,2.20
2023-03-10T07:18:14.409Z,6.40
2023-03-10T07:20:45.047Z,4.73
2023-03-10T07:23:12.356Z,2.50
2023-03-10T07:25:39.300Z,4.13
2023-03-10T07:28:06.979Z,2.37
2023-03-10T07:30:34.357Z,2.87
2023-03-10T07:33:01.052Z,4.70
2023-03-10T07:35:27.815Z,5.67
2023-03-10T07:37:54.508Z,3.20
2023-03-10T07:40:24.842Z,4.47
2023-03-10T07:42:54.737Z,5.73
2023-03-10T07:45:22.945Z,3.07
2023-03-10T07:47:54.519Z,4.63
2023-03-10T07:50:21.894Z,6.27
2023-03-10T07:52:49.916Z,4.17
2023-03-10T07:55:16.969Z,5.07
2023-03-10T07:57:44.389Z,4.87
2023-03-10T08:00:12.123Z,5.03
2023-03-10T08:02:39.481Z,6.07
2023-03-10T08:05:06.892Z,6.60
2023-03-10T08:07:34.089Z,5.43
2023-03-10T08:10:00.783Z,4.80
2023-03-10T08:12:27.885Z,6.53
2023-03-10T08:14:54.916Z,4.43
2023-03-10T08:17:21.613Z,4.77
2023-03-10T08:19:48.731Z,6.33
2023-03-10T08:22:17.041Z,4.90
2023-03-10T08:24:43.705Z,7.00
2023-03-10T08:27:10.425Z,6.03
2023-03-10T08:29:37.801Z,5.27
2023-03-10T08:32:05.048Z,8.63
2023-03-10T08:34:33.531Z,6.87
2023-03-10T08:37:00.959Z,6.77
2023-03-10T08:39:28.689Z,5.70
2023-03-10T08:41:55.867Z,7.63
2023-03-10T08:44:23.074Z,5.67
2023-03-10T08:46:50.921Z,4.87
2023-03-10T08:49:19.876Z,4.83
2023-03-10T08:51:47.170Z,5.90
2023-03-10T08:54:17.504Z,6.83
2023-03-10T08:56:44.891Z,5.00
2023-03-10T08:59:11.836Z,5.93
2023-03-10T09:01:39.163Z,4.63
2023-03-10T09:04:08.310Z,3.67
2023-03-10T09:06:36.324Z,5.87
2023-03-10T09:09:05.119Z,6.13
2023-03-10T09:11:34.713Z,5.47
2023-03-10T09:14:03.271Z,4.00
2023-03-10T09:16:31.046Z,3.03
2023-03-10T09:19:01.015Z,8.23
2023-03-10T09:21:32.792Z,4.23
2023-03-10T09:24:00.842Z,4.47
2023-03-10T09:26:27.913Z,5.50
2023-03-10T09:28:56.969Z,5.17
2023-03-10T09:31:32.700Z,4.00
2023-03-10T09:33:59.734Z,7.77
2023-03-10T09:36:27.092Z,5.13
2023-03-10T09:38:54.170Z,2.93
2023-03-10T09:41:42.130Z,4.10
2023-03-10T09:44:09.168Z,7.33
2023-03-10T09:46:54.056Z,6.40
2023-03-10T09:49:44.601Z,6.30
2023-03-10T09:52:28.142Z,3.73
2023-03-10T09:55:13.101Z,5.40
2023-03-10T09:57:40.436Z,6.03
2023-03-10T10:00:11.482Z,5.80
2023-03-10T10:02:42.383Z,5.50
2023-03-10T10:05:19.680Z,4.23
2023-03-10T10:07:52.982Z,3.23
2023-03-10T10:10:24.906Z,2.87
2023-03-10T10:12:54.571Z,8.13
2023-03-10T10:15:27.171Z,3.37
2023-03-10T10:18:22.694Z,4.77
2023-03-10T10:20:59.078Z,3.83
2023-03-10T10:24:03.842Z,3.90
2023-03-10T10:26:30.747Z,4.33
2023-03-10T10:29:07.077Z,5.00
2023-03-10T10:31:36.087Z,4.07
2023-03-10T10:34:05.411Z,3.53
2023-03-10T10:36:35.246Z,4.23
2023-03-10T10:39:04.487Z,5.03
2023-03-10T10:41:33.951Z,4.70
2023-03-10T10:44:08.623Z,4.57
2023-03-10T10:46:36.096Z,3.33
2023-03-10T10:49:06.184Z,5.07
2023-03-10T10:51:35.970Z,4.27
2023-03-10T10:54:28.319Z,6.37
2023-03-10T10:56:57.622Z,6.07
2023-03-10T10:59:29.821Z,4.53
2023-03-10T11:01:59.437Z,3.20
2023-03-10T11:04:29.618Z,3.50
2023-03-10T11:07:11.807Z,7.13
2023-03-10T11:09:38.598Z,3.77
2023-03-10T11:12:20.053Z,4.17
2023-03-10T11:15:06.890Z,4.27
2023-03-10T11:17:57.567Z,3.47
2023-03-10T11:20:49.021Z,3.13
2023-03-10T11:23:54.101Z,2.30
2023-03-10T11:26:21.343Z,4.30
2023-03-10T11:29:00.072Z,3.17
2023-03-10T11:32:01.779Z,1.50
2023-03-10T11:34:30.524Z,4.73
2023-03-10T11:37:17.727Z,6.83
2023-03-10T11:39:53.350Z,4.43
2023-03-10T11:42:32.427Z,2.67
2023-03-10T11:45:25.273Z,3.40
2023-03-10T11:48:07.048Z,5.07
2023-03-10T11:50:34.182Z,2.77
2023-03-10T11:53:08.490Z,3.57
2023-03-10T11:55:36.233Z,3.60
2023-03-10T11:58:05.516Z,3.60
2023-03-10T12:00:41.385Z,4.33
2023-03-10T12:03:19.458Z,3.97
2023-03-10T12:05:52.150Z,4.47
2023-03-10T12:08:22.290Z,3.73
2023-03-10T12:10:50.164Z,3.73
2023-03-10T12:13:29.930Z,2.43
2023-03-10T12:16:02.254Z,4.43
2023-03-10T12:18:29.564Z,3.50
2023-03-10T12:21:16.354Z,3.37
2023-03-10T12:23:46.478Z,3.00
2023-03-10T12:26:13.845Z,3.23
2023-03-10T12:28:41.472Z,2.20
2023-03-10T12:31:32.322Z,3.80
2023-03-10T12:34:14.972Z,3.00
2023-03-10T12:36:45.270Z,2.80
2023-03-10T12:39:30.810Z,4.87
2023-03-10T12:41:57.900Z,2.10
2023-03-10T12:44:30.970Z,2.03
2023-03-10T12:47:19.556Z,2.70
2023-03-10T12:49:46.183Z,1.60
2023-03-10T12:52:37.507Z,1.80
2023-03-10T12:55:27.953Z,2.47
2023-03-10T12:58:03.890Z,3.00
2023-03-10T13:00:33.623Z,2.93
2023-03-10T13:03:31.799Z,2.93
2023-03-10T13:06:00.234Z,3.50
2023-03-10T13:08:36.879Z,2.07
2023-03-10T13:11:04.756Z,2.43
2023-03-10T13:13:36.041Z,2.40
2023-03-10T13:16:06.033Z,3.87
2023-03-10T13:18:33.760Z,1.50
2023-03-10T13:21:01.679Z,2.83
2023-03-10T13:23:36.940Z,2.13
2023-03-10T13:26:09.094Z,2.27
2023-03-10T13:28:36.528Z,2.33
2023-03-10T13:31:14.492Z,1.93
2023-03-10T13:33:52.264Z,2.60
2023-03-10T13:36:32.953Z,2.67
2023-03-10T13:39:03.097Z,2.00
2023-03-10T13:41:31.129Z,2.87
2023-03-10T13:43:57.928Z,2.20
2023-03-10T13:46:30.882Z,3.90
2023-03-10T13:49:06.210Z,2.53
2023-03-10T13:51:36.162Z,4.57
2023-03-10T13:54:24.070Z,2.63
2023-03-10T13:56:53.558Z,5.27
2023-03-10T13:59:24.427Z,3.83
2023-03-10T14:01:55.524Z,3.37
2023-03-10T14:04:44.602Z,2.47
2023-03-10T14:07:18.617Z,1.67
2023-03-10T14:10:05.043Z,3.57
2023-03-10T14:12:39.661Z,1.97
2023-03-10T14:15:22.041Z,1.60
2023-03-10T14:18:07.072Z,1.53
2023-03-10T14:20:38.158Z,1.20
2023-03-10T14:23:21.576Z,1.30
2023-03-10T14:25:53.889Z,1.17
2023-03-10T14:28:32.270Z,2.90
2023-03-10T14:31:00.561Z,1.27
2023-03-10T14:33:27.695Z,1.30
2023-03-10T14:35:54.863Z,1.03
2023-03-10T14:38:21.984Z,1.00
2023-03-10T14:40:52.817Z,2.37
2023-03-10T14:43:25.621Z,0.90
2023-03-10T14:45:54.771Z,1.10
2023-03-10T14:48:24.834Z,1.37
2023-03-10T14:50:51.935Z,1.00
2023-03-10T14:53:24.441Z,1.67
2023-03-10T14:55:54.424Z,2.73
2023-03-10T14:58:24.251Z,1.23
2023-03-10T15:00:51.724Z,2.50
2023-03-10T15:03:18.475Z,2.17
2023-03-10T15:05:48.925Z,2.50
2023-03-10T15:08:17.160Z,1.40
2023-03-10T15:10:48.224Z,2.47
2023-03-10T15:13:16.609Z,4.30
2023-03-10T15:15:45.800Z,1.60
2023-03-10T15:18:14.624Z,1.60
2023-03-10T15:20:41.750Z,2.47
2023-03-10T15:23:08.782Z,2.03
2023-03-10T15:25:35.604Z,2.23
2023-03-10T15:28:03.074Z,1.77
2023-03-10T15:30:35.340Z,2.13
2023-03-10T15:33:02.793Z,3.93
2023-03-10T15:35:30.356Z,1.90
2023-03-10T15:37:58.175Z,1.90
2023-03-10T15:40:27.291Z,2.40
2023-03-10T15:42:57.865Z,2.60
2023-03-10T15:45:29.394Z,3.83
2023-03-10T15:47:57.336Z,3.00
2023-03-10T15:50:24.520Z,2.83
2023-03-10T15:52:53.987Z,2.07
2023-03-10T15:55:21.504Z,1.90
2023-03-10T15:57:49.858Z,2.27
2023-03-10T16:00:18.516Z,2.63
2023-03-10T16:02:46.436Z,4.67
2023-03-10T16:05:13.490Z,2.23
2023-03-10T16:07:40.642Z,2.73
2023-03-10T16:10:10.905Z,1.50
2023-03-10T16:12:37.688Z,1.60
2023-03-10T16:15:05.008Z,1.80
2023-03-10T16:17:32.337Z,1.60
2023-03-10T16:20:07.056Z,4.10
2023-03-10T16:22:37.184Z,2.10
2023-03-10T16:25:04.459Z,2.43
2023-03-10T16:27:31.637Z,1.20
2023-03-10T16:30:00.494Z,1.83
2023-03-10T16:32:27.755Z,1.30
2023-03-10T16:34:54.913Z,1.77
2023-03-10T16:37:22.083Z,1.63
2023-03-10T16:39:48.838Z,1.33
2023-03-10T16:42:16.398Z,1.53
2023-03-10T16:44:43.574Z,1.40
2023-03-10T16:47:12.375Z,1.50
2023-03-10T16:49:39.331Z,1.30
2023-03-10T16:52:10.676Z,2.80
2023-03-10T16:54:38.128Z,1.97
2023-03-10T16:57:07.070Z,2.30
2023-03-10T16:59:33.913Z,2.53
2023-03-10T17:02:00.936Z,2.40
2023-03-10T17:04:28.161Z,1.93
2023-03-10T17:06:55.341Z,1.60
2023-03-10T17:09:22.571Z,1.90
2023-03-10T17:11:55.164Z,1.40
2023-03-10T17:14:22.635Z,3.10
2023-03-10T17:16:49.807Z,2.60
2023-03-10T17:19:19.427Z,2.80
2023-03-10T17:21:48.698Z,2.93
2023-03-10T17:24:17.837Z,3.77
2023-03-10T17:26:45.154Z,2.70
2023-03-10T17:29:12.452Z,3.63
2023-03-10T17:31:39.605Z,2.73
2023-03-10T17:34:12.161Z,3.40
2023-03-10T17:36:39.224Z,3.00
2023-03-10T17:39:06.535Z,5.23
2023-03-10T17:41:34.789Z,4.77
2023-03-10T17:44:04.615Z,4.43
2023-03-10T17:46:32.079Z,4.37
2023-03-10T17:49:00.214Z,3.07
2023-03-10T17:51:30.064Z,3.50
2023-03-10T17:53:58.949Z,4.97
2023-03-10T17:56:26.571Z,2.97
2023-03-10T17:58:54.362Z,3.73
2023-03-10T18:01:24.129Z,4.73
2023-03-10T18:03:51.304Z,4.50
2023-03-10T18:06:21.027Z,4.60
2023-03-10T18:08:47.944Z,5.00
2023-03-10T18:11:15.175Z,4.60
2023-03-10T18:13:42.691Z,5.13
2023-03-10T18:16:17.697Z,6.27
2023-03-10T18:18:45.204Z,6.57
2023-03-10T18:21:12.858Z,5.47
2023-03-10T18:23:40.009Z,4.47
2023-03-10T18:26:09.383Z,5.00
2023-03-10T18:28:37.097Z,4.73
2023-03-10T18:31:08.391Z,6.27
2023-03-10T18:33:35.823Z,3.93
2023-03-10T18:36:04.337Z,5.10
2023-03-10T18:38:31.488Z,3.60
2023-03-10T18:41:00.454Z,3.80
2023-03-10T18:43:29.087Z,6.60
2023-03-10T18:45:56.364Z,5.77
2023-03-10T18:48:28.364Z,4.57
2023-03-10T18:50:56.367Z,4.67
2023-03-10T18:53:23.875Z,4.47
2023-03-10T18:55:51.129Z,4.57
2023-03-10T18:58:18.250Z,4.50
2023-03-10T19:00:45.486Z,4.73
2023-03-10T19:03:16.318Z,4.30
2023-03-10T19:05:43.614Z,5.00
2023-03-10T19:08:10.954Z,4.73
2023-03-10T19:10:39.509Z,4.23
2023-03-10T19:13:07.610Z,6.10
2023-03-10T19:15:36.784Z,8.00
2023-03-10T19:18:04.475Z,14.13
2023-03-10T19:20:31.287Z,7.60
2023-03-10T19:22:58.460Z,8.23
2023-03-10T19:25:25.239Z,6.77
2023-03-10T19:27:52.435Z,4.77
2023-03-10T19:30:20.416Z,4.93
2023-03-10T19:32:48.229Z,4.83
2023-03-10T19:35:16.217Z,5.53
2023-03-10T19:37:43.639Z,3.00
2023-03-10T19:40:15.808Z,5.60
2023-03-10T19:42:43.108Z,4.20
2023-03-10T19:45:15.391Z,3.97
2023-03-10T19:47:43.490Z,2.80
2023-03-10T19:50:11.929Z,3.20
2023-03-10T19:52:46.480Z,4.47
2023-03-10T19:55:24.095Z,3.67
2023-03-10T19:57:52.688Z,4.53
2023-03-10T20:00:24.890Z,3.90
2023-03-10T20:02:55.577Z,3.50
2023-03-10T20:05:25.249Z,3.27
2023-03-10T20:07:52.503Z,4.03
2023-03-10T20:10:19.468Z,4.77
2023-03-10T20:12:51.267Z,3.13
2023-03-10T20:15:18.398Z,3.10
2023-03-10T20:17:45.668Z,2.57
2023-03-10T20:20:15.033Z,2.40
2023-03-10T20:22:43.592Z,2.40
2023-03-10T20:25:12.106Z,2.63
2023-03-10T20:27:39.034Z,2.67
2023-03-10T20:30:08.094Z,3.30
2023-03-10T20:32:35.788Z,3.80
2023-03-10T20:35:04.088Z,2.90
2023-03-10T20:37:30.901Z,3.37
2023-03-10T20:39:58.163Z,3.20
2023-03-10T20:42:24.915Z,3.73
2023-03-10T20:44:51.982Z,5.83
2023-03-10T20:47:19.097Z,4.27
2023-03-10T20:49:46.270Z,4.53
2023-03-10T20:52:13.092Z,5.77
2023-03-10T20:54:40.268Z,6.20
2023-03-10T20:57:08.586Z,5.07
2023-03-10T20:59:36.451Z,5.20
2023-03-10T21:02:03.424Z,5.67
2023-03-10T21:04:30.542Z,6.63
2023-03-10T21:06:57.235Z,5.97
2023-03-10T21:09:24.488Z,5.70
2023-03-10T21:11:51.708Z,4.80
2023-03-10T21:14:19.071Z,4.30
2023-03-10T21:16:46.587Z,4.23
2023-03-10T21:19:13.816Z,4.20
2023-03-10T21:21:40.993Z,4.00
2023-03-10T21:24:08.097Z,5.00
2023-03-10T21:26:35.847Z,4.20
2023-03-10T21:29:03.285Z,3.63
2023-03-10T21:31:30.676Z,4.47
2023-03-10T21:33:57.754Z,3.30
2023-03-10T21:36:25.045Z,5.83
2023-03-10T21:38:52.677Z,3.57
2023-03-10T21:41:25.386Z,4.17
2023-03-10T21:43:56.294Z,4.50
2023-03-10T21:46:23.991Z,8.17
2023-03-10T21:48:52.284Z,5.60
2023-03-10T21:51:22.984Z,3.97
2023-03-10T21:53:50.765Z,6.07
2023-03-10T21:56:17.877Z,4.27
2023-03-10T21:58:45.464Z,5.43
2023-03-10T22:01:13.480Z,5.77
2023-03-10T22:03:40.784Z,3.83
2023-03-10T22:06:07.682Z,4.90
2023-03-10T22:08:35.969Z,3.43
2023-03-10T22:11:03.689Z,4.47
2023-03-10T22:13:30.787Z,5.67
2023-03-10T22:16:00.370Z,4.77
2023-03-10T22:18:27.579Z,4.27
2023-03-10T22:20:54.424Z,6.57
2023-03-10T22:23:21.308Z,9.60
2023-03-10T22:25:48.368Z,5.07
2023-03-10T22:28:15.252Z,5.03
2023-03-10T22:30:42.594Z,8.57
2023-03-10T22:33:09.382Z,4.17
2023-03-10T22:35:37.416Z,3.97
2023-03-10T22:38:05.065Z,5.00
2023-03-10T22:40:32.420Z,5.50
2023-03-10T22:42:59.234Z,6.83
2023-03-10T22:45:30.732Z,2.93
2023-03-10T22:48:00.222Z,5.13
2023-03-10T22:50:32.532Z,6.13
2023-03-10T22:53:00.935Z,7.30
2023-03-10T22:55:34.742Z,5.43
2023-03-10T22:58:03.539Z,9.10
2023-03-10T23:00:30.753Z,5.53
2023-03-10T23:02:58.257Z,6.53
2023-03-10T23:05:26.890Z,8.90
2023-03-10T23:07:54.589Z,6.80
2023-03-10T23:10:26.346Z,9.37
2023-03-10T23:12:54.361Z,7.70
2023-03-10T23:15:25.961Z,5.23
2023-03-10T23:17:53.973Z,5.90
2023-03-10T23:20:24.022Z,8.47
2023-03-10T23:22:51.013Z,6.43
2023-03-10T23:25:30.424Z,6.73
2023-03-10T23:28:00.442Z,5.07
2023-03-10T23:30:28.276Z,12.73
2023-03-10T23:32:55.894Z,8.47
2023-03-10T23:35:25.899Z,8.70
2023-03-10T23:37:52.991Z,10.03
2023-03-10T23:40:21.429Z,9.63
2023-03-10T23:42:48.417Z,11.20
2023-03-10T23:45:18.970Z,5.37
2023-03-10T23:47:46.575Z,6.47
2023-03-10T23:50:26.091Z,6.57
2023-03-10T23:52:53.345Z,10.87
2023-03-10T23:55:24.075Z,5.97
2023-03-10T23:57:50.802Z,6.50
